Flight Track Log - Related Links

Times and Time Zones

All times are in EDT time to prevent confusion due to time zone crossing. See the SKW4575 flight status page for this flight to view local times or setup timezone preferences in your user account.

Time Position Orientation Groundspeed Altitude Reporting Facility
EDT Latitude Longitude Course Direction KTS MPH feet Rate Location/Type
Tue 01:25:15 PM 38.6500 -121.5500 76° East 195 224 3,000  Level Northern Cal TRACON
Tue 01:26:15 PM 38.6500 -121.4667 90° East 215 247 5,900 2,850 Climbing Northern Cal TRACON
Tue 01:27:00 PM 38.5167 -121.1445 90° East  Level FlightAware Approximate
Tue 01:27:15 PM 38.6667 -121.3833 76° East 204 235 8,700  Level Northern Cal TRACON
Tue 01:28:00 PM 38.5473 -120.9841 73° East  Level FlightAware Approximate
Tue 01:28:15 PM 38.6667 -121.2833 90° East 277 319 10,300  Level Northern Cal TRACON
Tue 01:29:00 PM 38.5806 -120.8236 77° East  Level FlightAware Approximate
Tue 01:30:00 PM 38.6110 -120.6620 76° East  Level FlightAware Approximate
Tue 01:30:09 PM 38.6769 -121.0878 86° East 341 392 14,400  Level Oakland Center
Tue 01:31:10 PM 38.6825 -120.9681 87° East 340 391 16,800 2,213 Climbing Oakland Center
Tue 01:32:11 PM 38.6883 -120.8431 87° East 343 395 18,900 1,623 Climbing Oakland Center
Tue 01:33:12 PM 38.6961 -120.6733 87° East 397 457 20,100 1,463 Climbing Oakland Center
Tue 01:34:14 PM 38.7028 -120.5267 87° East 408 470 21,900 2,049 Climbing Oakland Center
Tue 01:35:15 PM 38.7092 -120.3783 87° East 412 474 24,300 1,672 Climbing Oakland Center
Tue 01:36:16 PM 38.6994 -120.2325 95° East 411 473 25,300 984 Climbing Oakland Center
Tue 01:37:17 PM 38.7681 -120.1083 55° Northeast 433 498 26,300 1,073 Climbing Oakland Center
Tue 01:38:19 PM 38.8633 -120.0028 41° Northeast 444 511 27,500 1,122 Climbing Oakland Center
Tue 01:39:20 PM 38.9642 -119.8942 40° Northeast 463 533 28,600 1,131 Climbing Oakland Center
Tue 01:40:21 PM 39.0728 -119.7867 38° Northeast 486 559 29,800 1,180 Climbing Oakland Center
Tue 01:41:22 PM 39.1753 -119.6703 41° Northeast 491 565 31,000 1,082 Climbing Oakland Center
Tue 01:42:23 PM 39.2861 -119.5378 43° Northeast 493 567 32,000 976 Climbing Oakland Center
Tue 01:43:25 PM 39.3969 -119.4114 41° Northeast 498 573 33,000 488 Climbing Oakland Center
Tue 01:44:26 PM 39.5094 -119.2836 41° Northeast 522 601 33,000 49 Level Oakland Center
Tue 01:45:27 PM 39.6153 -119.1625 41° Northeast 530 610 33,100 738 Climbing Oakland Center
Tue 01:46:28 PM 39.7208 -119.0428 41° Northeast 529 609 34,500 934 Climbing Oakland Center
Tue 01:47:29 PM 39.8381 -118.9000 43° Northeast 522 601 35,000 341 Climbing Oakland Center
Tue 01:48:31 PM 39.9081 -118.7419 60° Northeast 531 611 35,200 683 Climbing Oakland Center
Tue 01:49:32 PM 39.9775 -118.5561 64° Northeast 515 593 36,400 1,033 Climbing Oakland Center
Tue 01:50:33 PM 40.0369 -118.3978 64° Northeast 512 589 37,300 934 Climbing Oakland Center
Tue 01:51:34 PM 40.0947 -118.2411 64° Northeast 506 582 38,300 836 Climbing Oakland Center
Tue 01:52:35 PM 40.1606 -118.0603 64° Northeast 497 572 39,000 341 Climbing Oakland Center
Tue 01:53:37 PM 40.2178 -117.9044 64° Northeast 496 571 39,000  Level Oakland Center
Tue 01:54:38 PM 40.2758 -117.7431 65° Northeast 504 580 39,000  Level Oakland Center
Tue 01:55:39 PM 40.3453 -117.5542 64° Northeast 510 587 39,000  Level Oakland Center
Tue 01:56:40 PM 40.4039 -117.3925 64° Northeast 511 588 39,000  Level Oakland Center
Tue 01:57:41 PM 40.4625 -117.2272 65° Northeast 513 590 39,000  Level Oakland Center
Tue 01:58:48 PM 40.5300 -117.0339 65° Northeast 513 590 39,000  Level Salt Lake Center
Tue 01:59:50 PM 40.5758 -116.8319 73° East 509 586 39,000  Level Salt Lake Center
Tue 02:00:52 PM 40.5856 -116.6544 86° East 503 579 39,000  Level Salt Lake Center
Tue 02:01:54 PM 40.5964 -116.4778 85° East 503 579 39,000  Level Salt Lake Center
Tue 02:02:56 PM 40.6083 -116.2689 86° East 506 582 39,000  Level Salt Lake Center
Tue 02:03:58 PM 40.6183 -116.0883 86° East 512 589 39,000  Level Salt Lake Center
Tue 02:05:00 PM 40.6300 -115.8792 86° East 512 589 39,000  Level Salt Lake Center
Tue 02:06:02 PM 40.6386 -115.7008 86° East 511 588 39,000  Level Salt Lake Center
Tue 02:07:04 PM 40.6494 -115.4961 86° East 506 582 39,000  Level Salt Lake Center
Tue 02:08:06 PM 40.6586 -115.3197 86° East 505 581 39,000  Level Salt Lake Center
Tue 02:09:08 PM 40.6692 -115.1442 85° East 504 580 39,000  Level Salt Lake Center
Tue 02:10:10 PM 40.6819 -114.9406 85° East 503 579 39,000  Level Salt Lake Center
Tue 02:11:12 PM 40.6897 -114.7636 87° East 499 574 39,000  Level Salt Lake Center
Tue 02:12:14 PM 40.6981 -114.5819 86° East 499 574 39,000 -726 Level Salt Lake Center
Tue 02:13:16 PM 40.7042 -114.3997 87° East 499 574 37,500 -2,419 Descending Salt Lake Center
Tue 02:14:18 PM 40.7111 -114.1767 88° East 505 581 34,000 -3,097 Descending Salt Lake Center
Tue 02:15:20 PM 40.7181 -113.9842 87° East 522 601 31,100 -2,806 Descending Salt Lake Center
Tue 02:16:22 PM 40.7256 -113.7883 87° East 532 612 28,200 -2,371 Descending Salt Lake Center
Tue 02:17:24 PM 40.7258 -113.6058 90° East 503 579 26,200 -1,790 Descending Salt Lake Center
Tue 02:18:26 PM 40.7256 -113.4531 90° East 423 487 24,500 -1,790 Descending Salt Lake Center
Tue 02:19:28 PM 40.7269 -113.3156 89° East 385 443 22,500 -2,098 Descending Salt Lake Center
Tue 02:20:29 PM 40.7258 -113.1611 90° East 355 409 20,200 -1,951 Descending Salt Lake Center
Tue 02:21:31 PM 40.7247 -113.0367 91° East 343 395 18,500 -1,500 Descending Salt Lake Center
Tue 02:22:33 PM 40.7239 -112.9158 90° East 337 388 17,100 -1,023 Descending Salt Lake Center
Tue 02:22:59 PM 40.7292 -112.8622 83° East 322 371 17,000 -97 Descending Salt Lake Center
Tue 02:23:35 PM 40.7225 -112.7997 98° East 323 372 17,000  Level Salt Lake Center
Tue 02:23:48 PM 40.7258 -112.7644 83° East 318 366 17,000 -387 Level Salt Lake Center
Tue 02:24:37 PM 40.7225 -112.6808 93° East 324 373 16,600 -881 Descending Salt Lake Center
Tue 02:25:37 PM 40.7222 -112.5539 90° East 320 368 15,400 -1,065 Descending Salt Lake Center
Tue 02:25:39 PM 40.7208 -112.5642 260° West 323 372 15,500 -984 Climbing Salt Lake Center
Tue 02:26:38 PM 40.7206 -112.4442 90° East 287 330 14,400 -1,161 Descending Salt Lake Center
Tue 02:26:41 PM 40.7175 -112.4353 114° Southeast 292 336 14,300 -1,475 Descending Salt Lake Center
Tue 02:27:39 PM 40.7161 -112.3325 91° East 296 341 12,900 -1,452 Descending Salt Lake Center
Tue 02:27:43 PM 40.7144 -112.3267 111° Southeast 297 342 12,800 -885 Descending Salt Lake Center
Tue 02:28:40 PM 40.7072 -112.2308 96° East 258 297 12,000 -774 Descending Salt Lake Center
Tue 02:28:45 PM 40.7064 -112.2297 135° Southeast 267 307 12,000  Level Salt Lake Center
Tue 02:29:47 PM 40.6997 -112.1369 95° East 258 297 12,000 -393 Level Salt Lake Center
Tue 02:30:47 PM 40.7489 -112.0811 41° Northeast 262 302 11,200 -677 Descending Salt Lake Center
Tue 02:30:49 PM 40.7425 -112.0756 147° Southeast 266 306 11,300 -545 Climbing Salt Lake Center
Tue 02:31:42 PM 40.8153 -112.1011 345° North 259 298 10,700 -484 Descending Salt Lake Center
Tue 02:31:51 PM 40.8111 -112.0975 147° Southeast 257 296 10,800 -1,433 Climbing Salt Lake Center
Tue 02:32:49 PM 40.8903 -112.1097 353° North 261 300 9,100 -1,770 Descending Salt Lake Center
Tue 02:32:52 PM 40.8975 -112.1081 10° North 257 296 9,000 -984 Descending Salt Lake Center
Tue 02:33:50 PM 40.9636 -112.1106 358° North 239 275 8,100 -871 Descending Salt Lake Center
Tue 02:33:54 PM 40.9644 -112.1089 56° Northeast 247 284 8,100 -182 Level Salt Lake Center
Tue 02:34:56 PM 40.9567 -112.0506 100° East 203 234 7,900 -872 Descending Salt Lake Center
Tue 02:35:51 PM 40.9192 -112.0147 144° Southeast 159 183 6,400 -1,452 Descending Salt Lake Center
Tue 02:35:58 PM 40.9189 -112.0128 101° East 169 194 6,400 -655 Level Salt Lake Center
Tue 02:36:46 PM 40.8836 -112.0097 176° South 130 150 5,800 -677 Descending Salt Lake Center
Tue 02:37:00 PM 40.8808 -112.0078 152° Southeast 139 160 5,700 -716 Descending Salt Lake Center
Tue 02:37:53 PM 40.8436 -112.0036 175° South 136 157 5,000 -677 Descending Salt Lake Center
Tue 02:38:02 PM 40.8433 -112.0028 114° Southeast 138 159 5,000 -600 Level Salt Lake Center
Tue 02:39:03 PM 40.7969 -111.9975 175° South 138 159 4,300 -689 Descending Salt Lake Center

Login

Don't have an account? Register now (free) for customized features, flight alerts, and more!